Bray, Oklahoma
Current Conditions -  °F | °C
As of 4:35 PM on Sunday 21 Dec 2014 (Local Time) from KDUC Reporting Station
Overcast Overcast  
Wind Chill: 50°   Ceiling: 1600
Heat Index: 50°   Visibility: NA
Dew Point: 46°   Wind: 13mph
Humidity: 87%   Direction: 150°SSE
Pressure: 29.77"   Gusts: 17mph
Location:  34.61°N, 97.82°W
Report Text: KDUC 212235Z AUTO 15011G15KT BKN016 OVC026 10/08 A2977 RMK AO2 PWINO
Loading
Personal Weather Stations






























Interactive Weather Map New forecast layout! Learn more

10-Day Weather Forecast

Advertisements
Track Severe Weather on mobile